Pagina principală
METAR-TAF:

METAR-TAF

Aeroporturi :

Munda, New Georgia, Insulele Solomon

Latitudine: 8-19-41S, longitudine: 157-15-47E, elevație: 3 m

Observații meteo curente

Raportul a fost făcut în urmă cu 8 ore și 42 de minute, la 04:00 UTC
Vânt calm
Temperatură 28°C
Umiditate 84%
Presiune 1007 hPa
Vizibilitate de 10 km sau mai mult
Nori împrăștiați la o înălțime de 1800 picior

METAR: AGGM 280400Z 00000KT 9999 SCT018 28/25 Q1007

Ora: 23:42 (12:42 UTC)

Prognoză

Raportul a fost făcut în urmă cu 1 oră și 32 de minute, la 11:10 UTC
Prognoză valabilă de la 28 ora 12 UTC la 29 ora 12 UTC
Vânt 3 kt din direcții variabile
Vizibilitate: 1011 m
Nori puțini la o înălțime de 1500 picior

TAF: AGGM 281110Z 2812/2912 VRB03KT 9999 FEW015 Q 1011 1009 1010 1011

Observații și prognoze meteo pentru peste 4.000 de aeroporturi (rapoarte METAR și TAF).

Stațiile disponibile sunt reprezentate pe hartă prin puncte galbene și roșii.

Țineți indicatorul mouse-ului pe punctul dorit pentru a vedea denumirea stației.

Apoi, faceți clic pentru a vedea observațiile și prognozele meteorologice.

Pentru a schimba harta: Pentru mărire, faceți clic pe butoanele verzi cu cruce neagră; pentru micșorare, pe butonul verde cu o liniuță; pentru hărți învecinate, pe săgețile verzi.


METAR-TAF: